sensor_id;sensor_type;location;lat;lon;timestamp;P1;durP1;ratioP1;P2;durP2;ratioP2
62709;SDS011;48770;51.624;5.886;2022-08-23T00:01:47;1.85;;;1.10;;
62709;SDS011;48770;51.624;5.886;2022-08-23T00:04:26;1.85;;;1.27;;
62709;SDS011;48770;51.624;5.886;2022-08-23T00:06:57;2.45;;;1.23;;
62709;SDS011;48770;51.624;5.886;2022-08-23T00:09:24;2.38;;;1.10;;
62709;SDS011;48770;51.624;5.886;2022-08-23T00:11:52;2.78;;;1.40;;
62709;SDS011;48770;51.624;5.886;2022-08-23T00:14:31;2.78;;;1.27;;
62709;SDS011;48770;51.624;5.886;2022-08-23T00:16:58;2.38;;;1.20;;
62709;SDS011;48770;51.624;5.886;2022-08-23T00:19:24;1.35;;;1.00;;
62709;SDS011;48770;51.624;5.886;2022-08-23T00:21:51;2.83;;;1.48;;
62709;SDS011;48770;51.624;5.886;2022-08-23T00:24:18;1.67;;;1.27;;
62709;SDS011;48770;51.624;5.886;2022-08-23T00:29:36;2.92;;;1.42;;
62709;SDS011;48770;51.624;5.886;2022-08-23T00:32:05;1.65;;;1.23;;
62709;SDS011;48770;51.624;5.886;2022-08-23T00:34:34;2.13;;;1.38;;
62709;SDS011;48770;51.624;5.886;2022-08-23T00:37:00;2.55;;;1.40;;
62709;SDS011;48770;51.624;5.886;2022-08-23T00:39:25;2.70;;;1.20;;
62709;SDS011;48770;51.624;5.886;2022-08-23T00:41:51;2.05;;;1.15;;
62709;SDS011;48770;51.624;5.886;2022-08-23T00:44:27;2.72;;;1.20;;
62709;SDS011;48770;51.624;5.886;2022-08-23T00:47:16;2.70;;;1.55;;
62709;SDS011;48770;51.624;5.886;2022-08-23T00:55:43;2.38;;;1.58;;
62709;SDS011;48770;51.624;5.886;2022-08-23T00:58:11;2.20;;;1.20;;
62709;SDS011;48770;51.624;5.886;2022-08-23T01:00:39;1.58;;;1.30;;
62709;SDS011;48770;51.624;5.886;2022-08-23T01:03:06;3.38;;;1.50;;
62709;SDS011;48770;51.624;5.886;2022-08-23T01:05:48;2.33;;;1.40;;
62709;SDS011;48770;51.624;5.886;2022-08-23T01:08:16;2.75;;;1.30;;
62709;SDS011;48770;51.624;5.886;2022-08-23T01:10:46;1.77;;;1.10;;
62709;SDS011;48770;51.624;5.886;2022-08-23T01:13:17;2.55;;;1.38;;
62709;SDS011;48770;51.624;5.886;2022-08-23T01:15:48;3.65;;;1.27;;
62709;SDS011;48770;51.624;5.886;2022-08-23T01:18:20;3.15;;;1.30;;
62709;SDS011;48770;51.624;5.886;2022-08-23T01:23:36;2.58;;;1.50;;
62709;SDS011;48770;51.624;5.886;2022-08-23T01:26:06;2.55;;;1.27;;
62709;SDS011;48770;51.624;5.886;2022-08-23T01:28:32;1.40;;;1.10;;
62709;SDS011;48770;51.624;5.886;2022-08-23T01:30:58;1.42;;;1.00;;
62709;SDS011;48770;51.624;5.886;2022-08-23T01:33:24;3.00;;;1.38;;
62709;SDS011;48770;51.624;5.886;2022-08-23T01:35:51;3.55;;;1.38;;
62709;SDS011;48770;51.624;5.886;2022-08-23T01:38:19;1.85;;;1.10;;
62709;SDS011;48770;51.624;5.886;2022-08-23T01:40:44;1.30;;;1.00;;
62709;SDS011;48770;51.624;5.886;2022-08-23T01:43:10;2.78;;;1.40;;
62709;SDS011;48770;51.624;5.886;2022-08-23T01:45:37;2.08;;;1.30;;
62709;SDS011;48770;51.624;5.886;2022-08-23T01:48:03;3.28;;;1.90;;
62709;SDS011;48770;51.624;5.886;2022-08-23T01:50:29;2.03;;;1.23;;
62709;SDS011;48770;51.624;5.886;2022-08-23T01:52:55;1.67;;;1.27;;
62709;SDS011;48770;51.624;5.886;2022-08-23T01:55:21;2.60;;;1.48;;
62709;SDS011;48770;51.624;5.886;2022-08-23T01:57:47;2.45;;;1.20;;
62709;SDS011;48770;51.624;5.886;2022-08-23T02:00:17;2.08;;;1.10;;
62709;SDS011;48770;51.624;5.886;2022-08-23T02:02:44;2.88;;;1.40;;
62709;SDS011;48770;51.624;5.886;2022-08-23T02:05:11;1.83;;;1.20;;
62709;SDS011;48770;51.624;5.886;2022-08-23T02:07:37;3.97;;;1.38;;
62709;SDS011;48770;51.624;5.886;2022-08-23T02:10:03;2.13;;;1.30;;
62709;SDS011;48770;51.624;5.886;2022-08-23T02:12:31;2.20;;;1.25;;
62709;SDS011;48770;51.624;5.886;2022-08-23T02:14:57;3.08;;;1.20;;
62709;SDS011;48770;51.624;5.886;2022-08-23T02:17:22;1.88;;;1.23;;
62709;SDS011;48770;51.624;5.886;2022-08-23T02:19:48;3.08;;;1.40;;
62709;SDS011;48770;51.624;5.886;2022-08-23T02:22:13;3.88;;;1.30;;
62709;SDS011;48770;51.624;5.886;2022-08-23T02:24:42;2.08;;;1.05;;
62709;SDS011;48770;51.624;5.886;2022-08-23T02:27:10;2.25;;;1.20;;
62709;SDS011;48770;51.624;5.886;2022-08-23T02:29:38;4.32;;;1.80;;
62709;SDS011;48770;51.624;5.886;2022-08-23T02:32:04;2.60;;;1.55;;
62709;SDS011;48770;51.624;5.886;2022-08-23T02:34:29;1.95;;;1.38;;
62709;SDS011;48770;51.624;5.886;2022-08-23T02:36:55;2.35;;;1.10;;
62709;SDS011;48770;51.624;5.886;2022-08-23T02:39:21;2.35;;;1.23;;
62709;SDS011;48770;51.624;5.886;2022-08-23T02:41:46;2.72;;;1.38;;
62709;SDS011;48770;51.624;5.886;2022-08-23T02:44:12;2.92;;;1.50;;
62709;SDS011;48770;51.624;5.886;2022-08-23T02:46:38;2.03;;;1.20;;
62709;SDS011;48770;51.624;5.886;2022-08-23T02:49:05;1.33;;;1.10;;
62709;SDS011;48770;51.624;5.886;2022-08-23T02:51:30;2.10;;;1.45;;
62709;SDS011;48770;51.624;5.886;2022-08-23T02:53:56;3.05;;;1.27;;
62709;SDS011;48770;51.624;5.886;2022-08-23T02:56:21;1.70;;;0.93;;
62709;SDS011;48770;51.624;5.886;2022-08-23T02:58:47;2.53;;;1.50;;
62709;SDS011;48770;51.624;5.886;2022-08-23T03:01:15;3.35;;;1.52;;
62709;SDS011;48770;51.624;5.886;2022-08-23T03:03:44;3.25;;;1.20;;
62709;SDS011;48770;51.624;5.886;2022-08-23T03:06:11;3.08;;;1.30;;
62709;SDS011;48770;51.624;5.886;2022-08-23T03:08:37;1.90;;;1.10;;
62709;SDS011;48770;51.624;5.886;2022-08-23T03:11:02;5.53;;;1.70;;
62709;SDS011;48770;51.624;5.886;2022-08-23T03:16:00;2.00;;;1.33;;
62709;SDS011;48770;51.624;5.886;2022-08-23T03:18:26;2.67;;;1.60;;
62709;SDS011;48770;51.624;5.886;2022-08-23T03:20:51;1.95;;;1.10;;
62709;SDS011;48770;51.624;5.886;2022-08-23T03:23:17;2.27;;;1.50;;
62709;SDS011;48770;51.624;5.886;2022-08-23T03:25:42;2.95;;;1.50;;
62709;SDS011;48770;51.624;5.886;2022-08-23T03:28:07;2.67;;;1.10;;
62709;SDS011;48770;51.624;5.886;2022-08-23T03:30:33;4.13;;;1.40;;
62709;SDS011;48770;51.624;5.886;2022-08-23T03:32:59;2.47;;;1.33;;
62709;SDS011;48770;51.624;5.886;2022-08-23T03:35:25;4.78;;;1.50;;
62709;SDS011;48770;51.624;5.886;2022-08-23T03:37:51;3.78;;;1.73;;
62709;SDS011;48770;51.624;5.886;2022-08-23T03:40:18;2.00;;;1.40;;
62709;SDS011;48770;51.624;5.886;2022-08-23T03:42:44;3.28;;;1.70;;
62709;SDS011;48770;51.624;5.886;2022-08-23T03:45:09;3.65;;;1.50;;
62709;SDS011;48770;51.624;5.886;2022-08-23T03:47:35;3.40;;;1.20;;
62709;SDS011;48770;51.624;5.886;2022-08-23T03:50:00;4.60;;;1.52;;
62709;SDS011;48770;51.624;5.886;2022-08-23T03:52:25;2.55;;;1.23;;
62709;SDS011;48770;51.624;5.886;2022-08-23T03:54:51;2.30;;;1.38;;
62709;SDS011;48770;51.624;5.886;2022-08-23T03:57:16;2.05;;;1.30;;
62709;SDS011;48770;51.624;5.886;2022-08-23T03:59:41;2.97;;;1.70;;
62709;SDS011;48770;51.624;5.886;2022-08-23T04:02:07;3.05;;;1.50;;
62709;SDS011;48770;51.624;5.886;2022-08-23T04:04:33;3.35;;;1.73;;
62709;SDS011;48770;51.624;5.886;2022-08-23T04:06:59;2.45;;;1.40;;
62709;SDS011;48770;51.624;5.886;2022-08-23T04:09:25;2.75;;;1.40;;
62709;SDS011;48770;51.624;5.886;2022-08-23T04:11:50;2.15;;;1.70;;
62709;SDS011;48770;51.624;5.886;2022-08-23T04:14:16;1.75;;;1.27;;
62709;SDS011;48770;51.624;5.886;2022-08-23T04:16:42;2.38;;;1.55;;
62709;SDS011;48770;51.624;5.886;2022-08-23T04:19:08;2.42;;;1.30;;
62709;SDS011;48770;51.624;5.886;2022-08-23T04:21:37;3.00;;;1.58;;
62709;SDS011;48770;51.624;5.886;2022-08-23T04:24:03;4.10;;;1.48;;
62709;SDS011;48770;51.624;5.886;2022-08-23T04:26:29;2.80;;;1.83;;
62709;SDS011;48770;51.624;5.886;2022-08-23T04:28:55;2.53;;;1.60;;
62709;SDS011;48770;51.624;5.886;2022-08-23T04:31:21;2.45;;;1.60;;
62709;SDS011;48770;51.624;5.886;2022-08-23T04:33:47;2.88;;;1.73;;
62709;SDS011;48770;51.624;5.886;2022-08-23T04:36:13;2.33;;;1.52;;
62709;SDS011;48770;51.624;5.886;2022-08-23T04:38:38;1.70;;;1.60;;
62709;SDS011;48770;51.624;5.886;2022-08-23T04:41:04;2.28;;;1.70;;
62709;SDS011;48770;51.624;5.886;2022-08-23T04:43:48;2.65;;;1.80;;
62709;SDS011;48770;51.624;5.886;2022-08-23T04:46:15;3.03;;;2.08;;
62709;SDS011;48770;51.624;5.886;2022-08-23T04:48:41;2.30;;;1.55;;
62709;SDS011;48770;51.624;5.886;2022-08-23T04:51:07;1.85;;;1.73;;
62709;SDS011;48770;51.624;5.886;2022-08-23T04:53:32;2.80;;;1.65;;
62709;SDS011;48770;51.624;5.886;2022-08-23T04:55:59;3.08;;;1.60;;
62709;SDS011;48770;51.624;5.886;2022-08-23T04:58:29;1.85;;;1.63;;
62709;SDS011;48770;51.624;5.886;2022-08-23T05:00:56;1.58;;;1.45;;
62709;SDS011;48770;51.624;5.886;2022-08-23T05:03:23;2.08;;;1.70;;
62709;SDS011;48770;51.624;5.886;2022-08-23T05:05:48;2.85;;;2.08;;
62709;SDS011;48770;51.624;5.886;2022-08-23T05:08:14;2.08;;;1.52;;
62709;SDS011;48770;51.624;5.886;2022-08-23T05:10:40;4.28;;;2.10;;
62709;SDS011;48770;51.624;5.886;2022-08-23T05:13:05;4.30;;;1.65;;
62709;SDS011;48770;51.624;5.886;2022-08-23T05:15:30;3.92;;;1.98;;
62709;SDS011;48770;51.624;5.886;2022-08-23T05:17:56;1.95;;;1.48;;
62709;SDS011;48770;51.624;5.886;2022-08-23T05:20:21;2.28;;;1.58;;
62709;SDS011;48770;51.624;5.886;2022-08-23T05:22:47;2.03;;;1.60;;
62709;SDS011;48770;51.624;5.886;2022-08-23T05:25:12;2.03;;;1.50;;
62709;SDS011;48770;51.624;5.886;2022-08-23T05:27:37;3.67;;;1.83;;
62709;SDS011;48770;51.624;5.886;2022-08-23T05:30:03;4.57;;;1.90;;
62709;SDS011;48770;51.624;5.886;2022-08-23T05:32:30;2.55;;;1.67;;
62709;SDS011;48770;51.624;5.886;2022-08-23T05:34:56;3.20;;;1.60;;
62709;SDS011;48770;51.624;5.886;2022-08-23T05:37:21;3.53;;;1.70;;
62709;SDS011;48770;51.624;5.886;2022-08-23T05:39:46;3.33;;;1.80;;
62709;SDS011;48770;51.624;5.886;2022-08-23T05:42:13;4.05;;;1.63;;
62709;SDS011;48770;51.624;5.886;2022-08-23T05:44:40;2.63;;;1.70;;
62709;SDS011;48770;51.624;5.886;2022-08-23T05:47:07;2.65;;;1.88;;
62709;SDS011;48770;51.624;5.886;2022-08-23T05:49:34;2.22;;;1.63;;
62709;SDS011;48770;51.624;5.886;2022-08-23T05:52:01;2.85;;;1.80;;
62709;SDS011;48770;51.624;5.886;2022-08-23T05:54:28;4.63;;;2.13;;
62709;SDS011;48770;51.624;5.886;2022-08-23T05:56:54;2.40;;;1.50;;
62709;SDS011;48770;51.624;5.886;2022-08-23T05:59:20;1.95;;;1.70;;
62709;SDS011;48770;51.624;5.886;2022-08-23T06:01:45;4.50;;;2.00;;
62709;SDS011;48770;51.624;5.886;2022-08-23T06:04:11;1.63;;;1.48;;
62709;SDS011;48770;51.624;5.886;2022-08-23T06:06:36;2.33;;;1.80;;
62709;SDS011;48770;51.624;5.886;2022-08-23T06:09:04;2.25;;;2.03;;
62709;SDS011;48770;51.624;5.886;2022-08-23T06:11:30;2.83;;;1.75;;
62709;SDS011;48770;51.624;5.886;2022-08-23T06:13:58;4.47;;;2.00;;
62709;SDS011;48770;51.624;5.886;2022-08-23T06:16:26;3.05;;;1.80;;
62709;SDS011;48770;51.624;5.886;2022-08-23T06:18:55;4.75;;;2.00;;
62709;SDS011;48770;51.624;5.886;2022-08-23T06:21:22;2.35;;;1.80;;
62709;SDS011;48770;51.624;5.886;2022-08-23T06:23:48;4.30;;;2.10;;
62709;SDS011;48770;51.624;5.886;2022-08-23T06:26:24;2.53;;;1.60;;
62709;SDS011;48770;51.624;5.886;2022-08-23T06:28:55;3.20;;;2.10;;
62709;SDS011;48770;51.624;5.886;2022-08-23T06:31:22;3.17;;;1.90;;
62709;SDS011;48770;51.624;5.886;2022-08-23T06:34:08;3.17;;;1.92;;
62709;SDS011;48770;51.624;5.886;2022-08-23T06:36:48;2.83;;;2.10;;
62709;SDS011;48770;51.624;5.886;2022-08-23T06:39:19;4.82;;;2.20;;
62709;SDS011;48770;51.624;5.886;2022-08-23T06:41:46;3.67;;;1.70;;
62709;SDS011;48770;51.624;5.886;2022-08-23T06:44:12;2.20;;;1.90;;
62709;SDS011;48770;51.624;5.886;2022-08-23T06:46:38;3.33;;;1.90;;
62709;SDS011;48770;51.624;5.886;2022-08-23T06:49:04;2.65;;;1.90;;
62709;SDS011;48770;51.624;5.886;2022-08-23T06:51:32;2.35;;;1.77;;
62709;SDS011;48770;51.624;5.886;2022-08-23T06:54:01;3.35;;;1.95;;
62709;SDS011;48770;51.624;5.886;2022-08-23T06:56:29;5.28;;;2.13;;
62709;SDS011;48770;51.624;5.886;2022-08-23T06:58:55;2.30;;;1.85;;
62709;SDS011;48770;51.624;5.886;2022-08-23T07:01:23;3.05;;;1.75;;
62709;SDS011;48770;51.624;5.886;2022-08-23T07:03:57;2.83;;;1.88;;
62709;SDS011;48770;51.624;5.886;2022-08-23T07:06:24;2.42;;;1.70;;
62709;SDS011;48770;51.624;5.886;2022-08-23T07:08:51;3.15;;;1.73;;
62709;SDS011;48770;51.624;5.886;2022-08-23T07:11:16;2.17;;;1.73;;
62709;SDS011;48770;51.624;5.886;2022-08-23T07:13:43;2.47;;;1.63;;
62709;SDS011;48770;51.624;5.886;2022-08-23T07:16:09;1.98;;;1.63;;
62709;SDS011;48770;51.624;5.886;2022-08-23T07:18:34;3.15;;;1.90;;
62709;SDS011;48770;51.624;5.886;2022-08-23T07:21:01;2.63;;;1.65;;
62709;SDS011;48770;51.624;5.886;2022-08-23T07:23:28;2.22;;;1.60;;
62709;SDS011;48770;51.624;5.886;2022-08-23T07:25:58;2.03;;;1.67;;
62709;SDS011;48770;51.624;5.886;2022-08-23T07:28:25;3.80;;;1.80;;
62709;SDS011;48770;51.624;5.886;2022-08-23T07:30:51;2.30;;;1.50;;
62709;SDS011;48770;51.624;5.886;2022-08-23T07:33:17;2.13;;;1.52;;
62709;SDS011;48770;51.624;5.886;2022-08-23T07:35:48;1.80;;;1.50;;
62709;SDS011;48770;51.624;5.886;2022-08-23T07:38:15;2.65;;;1.70;;
62709;SDS011;48770;51.624;5.886;2022-08-23T07:40:41;2.28;;;1.42;;
62709;SDS011;48770;51.624;5.886;2022-08-23T07:43:07;2.33;;;1.65;;
62709;SDS011;48770;51.624;5.886;2022-08-23T07:45:32;2.83;;;1.80;;
62709;SDS011;48770;51.624;5.886;2022-08-23T07:48:00;2.90;;;2.00;;
62709;SDS011;48770;51.624;5.886;2022-08-23T07:50:26;2.20;;;1.80;;
62709;SDS011;48770;51.624;5.886;2022-08-23T07:52:51;1.92;;;1.73;;
62709;SDS011;48770;51.624;5.886;2022-08-23T07:55:17;3.17;;;1.80;;
62709;SDS011;48770;51.624;5.886;2022-08-23T07:57:42;2.70;;;1.45;;
62709;SDS011;48770;51.624;5.886;2022-08-23T08:00:08;3.45;;;1.88;;
62709;SDS011;48770;51.624;5.886;2022-08-23T08:02:34;1.63;;;1.52;;
62709;SDS011;48770;51.624;5.886;2022-08-23T08:04:59;2.08;;;1.70;;
62709;SDS011;48770;51.624;5.886;2022-08-23T08:07:24;5.93;;;2.10;;
62709;SDS011;48770;51.624;5.886;2022-08-23T08:09:51;2.83;;;1.40;;
62709;SDS011;48770;51.624;5.886;2022-08-23T08:12:16;6.93;;;2.83;;
62709;SDS011;48770;51.624;5.886;2022-08-23T08:14:42;4.15;;;2.83;;
62709;SDS011;48770;51.624;5.886;2022-08-23T08:17:08;3.85;;;2.63;;
62709;SDS011;48770;51.624;5.886;2022-08-23T08:19:33;3.90;;;2.50;;
62709;SDS011;48770;51.624;5.886;2022-08-23T08:21:58;3.30;;;2.40;;
62709;SDS011;48770;51.624;5.886;2022-08-23T08:24:24;3.13;;;2.30;;
62709;SDS011;48770;51.624;5.886;2022-08-23T08:26:49;3.75;;;2.40;;
62709;SDS011;48770;51.624;5.886;2022-08-23T08:29:15;3.40;;;2.72;;
62709;SDS011;48770;51.624;5.886;2022-08-23T08:31:41;2.72;;;2.28;;
62709;SDS011;48770;51.624;5.886;2022-08-23T08:34:07;5.03;;;2.55;;
62709;SDS011;48770;51.624;5.886;2022-08-23T08:36:40;3.40;;;2.35;;
62709;SDS011;48770;51.624;5.886;2022-08-23T08:39:09;5.00;;;2.50;;
62709;SDS011;48770;51.624;5.886;2022-08-23T08:47:13;6.30;;;2.15;;
62709;SDS011;48770;51.624;5.886;2022-08-23T08:52:31;4.97;;;2.22;;
62709;SDS011;48770;51.624;5.886;2022-08-23T08:55:03;4.20;;;2.13;;
62709;SDS011;48770;51.624;5.886;2022-08-23T08:57:39;3.78;;;2.33;;
62709;SDS011;48770;51.624;5.886;2022-08-23T09:02:39;5.35;;;3.38;;
62709;SDS011;48770;51.624;5.886;2022-08-23T09:05:10;6.03;;;4.00;;
62709;SDS011;48770;51.624;5.886;2022-08-23T09:07:42;7.50;;;4.55;;
62709;SDS011;48770;51.624;5.886;2022-08-23T09:18:16;10.57;;;5.78;;
62709;SDS011;48770;51.624;5.886;2022-08-23T09:20:43;10.50;;;5.70;;
62709;SDS011;48770;51.624;5.886;2022-08-23T09:23:13;10.77;;;5.20;;
62709;SDS011;48770;51.624;5.886;2022-08-23T09:25:52;8.43;;;4.75;;
62709;SDS011;48770;51.624;5.886;2022-08-23T09:28:19;7.15;;;4.22;;
62709;SDS011;48770;51.624;5.886;2022-08-23T09:33:35;5.07;;;3.85;;
62709;SDS011;48770;51.624;5.886;2022-08-23T09:38:58;4.38;;;2.72;;
62709;SDS011;48770;51.624;5.886;2022-08-23T09:44:06;7.45;;;3.20;;
62709;SDS011;48770;51.624;5.886;2022-08-23T09:46:37;7.65;;;2.67;;
62709;SDS011;48770;51.624;5.886;2022-08-23T09:49:25;6.63;;;2.78;;
62709;SDS011;48770;51.624;5.886;2022-08-23T09:51:54;3.30;;;2.20;;
62709;SDS011;48770;51.624;5.886;2022-08-23T09:56:55;4.60;;;2.40;;
62709;SDS011;48770;51.624;5.886;2022-08-23T10:01:49;4.00;;;2.37;;
62709;SDS011;48770;51.624;5.886;2022-08-23T10:04:23;3.58;;;2.25;;
62709;SDS011;48770;51.624;5.886;2022-08-23T10:06:55;4.25;;;2.10;;
62709;SDS011;48770;51.624;5.886;2022-08-23T10:09:25;5.05;;;2.33;;
62709;SDS011;48770;51.624;5.886;2022-08-23T10:11:52;4.25;;;2.13;;
62709;SDS011;48770;51.624;5.886;2022-08-23T10:14:20;3.80;;;2.40;;
62709;SDS011;48770;51.624;5.886;2022-08-23T10:16:54;5.68;;;2.58;;
62709;SDS011;48770;51.624;5.886;2022-08-23T10:19:43;7.15;;;2.20;;
62709;SDS011;48770;51.624;5.886;2022-08-23T10:22:21;2.83;;;1.90;;
62709;SDS011;48770;51.624;5.886;2022-08-23T10:24:54;5.47;;;2.17;;
62709;SDS011;48770;51.624;5.886;2022-08-23T10:36:22;3.90;;;2.08;;
62709;SDS011;48770;51.624;5.886;2022-08-23T10:39:14;3.38;;;1.75;;
62709;SDS011;48770;51.624;5.886;2022-08-23T10:42:00;4.30;;;1.60;;
62709;SDS011;48770;51.624;5.886;2022-08-23T10:44:50;6.72;;;2.05;;
62709;SDS011;48770;51.624;5.886;2022-08-23T10:50:06;3.75;;;1.90;;
62709;SDS011;48770;51.624;5.886;2022-08-23T10:55:25;2.53;;;1.63;;
62709;SDS011;48770;51.624;5.886;2022-08-23T10:58:20;5.32;;;1.90;;
62709;SDS011;48770;51.624;5.886;2022-08-23T11:00:49;3.88;;;2.00;;
62709;SDS011;48770;51.624;5.886;2022-08-23T11:03:27;2.97;;;1.52;;
62709;SDS011;48770;51.624;5.886;2022-08-23T11:14:12;3.10;;;2.08;;
62709;SDS011;48770;51.624;5.886;2022-08-23T11:20:09;2.50;;;1.48;;
62709;SDS011;48770;51.624;5.886;2022-08-23T11:24:57;1.20;;;1.10;;
62709;SDS011;48770;51.624;5.886;2022-08-23T11:44:32;1.90;;;1.15;;
62709;SDS011;48770;51.624;5.886;2022-08-23T11:46:31;2.58;;;1.45;;
62709;SDS011;48770;51.624;5.886;2022-08-23T11:59:43;1.85;;;1.02;;
62709;SDS011;48770;51.624;5.886;2022-08-23T12:18:29;2.08;;;1.30;;
62709;SDS011;48770;51.624;5.886;2022-08-23T12:20:57;2.17;;;1.20;;
62709;SDS011;48770;51.624;5.886;2022-08-23T12:23:24;1.30;;;1.10;;
62709;SDS011;48770;51.624;5.886;2022-08-23T12:25:58;1.60;;;1.08;;
62709;SDS011;48770;51.624;5.886;2022-08-23T12:28:35;1.17;;;0.88;;
62709;SDS011;48770;51.624;5.886;2022-08-23T12:31:19;1.20;;;1.00;;
62709;SDS011;48770;51.624;5.886;2022-08-23T12:33:56;2.38;;;1.00;;
62709;SDS011;48770;51.624;5.886;2022-08-23T12:42:06;1.85;;;1.13;;
62709;SDS011;48770;51.624;5.886;2022-08-23T12:44:39;1.75;;;0.90;;
62709;SDS011;48770;51.624;5.886;2022-08-23T12:47:11;1.88;;;1.05;;
62709;SDS011;48770;51.624;5.886;2022-08-23T12:49:39;3.07;;;1.30;;
62709;SDS011;48770;51.624;5.886;2022-08-23T12:52:07;1.38;;;0.90;;
62709;SDS011;48770;51.624;5.886;2022-08-23T12:54:41;1.73;;;1.10;;
62709;SDS011;48770;51.624;5.886;2022-08-23T12:57:19;1.35;;;1.00;;
62709;SDS011;48770;51.624;5.886;2022-08-23T13:03:05;4.80;;;1.02;;
62709;SDS011;48770;51.624;5.886;2022-08-23T13:08:10;1.17;;;0.82;;
62709;SDS011;48770;51.624;5.886;2022-08-23T13:10:43;0.98;;;0.85;;
62709;SDS011;48770;51.624;5.886;2022-08-23T13:13:11;0.88;;;0.70;;
62709;SDS011;48770;51.624;5.886;2022-08-23T13:15:39;0.85;;;0.70;;
62709;SDS011;48770;51.624;5.886;2022-08-23T13:18:07;2.10;;;0.63;;
62709;SDS011;48770;51.624;5.886;2022-08-23T13:20:33;0.98;;;0.80;;
62709;SDS011;48770;51.624;5.886;2022-08-23T13:23:06;2.55;;;0.75;;
62709;SDS011;48770;51.624;5.886;2022-08-23T13:25:39;2.42;;;0.77;;
62709;SDS011;48770;51.624;5.886;2022-08-23T13:28:27;1.15;;;0.68;;
62709;SDS011;48770;51.624;5.886;2022-08-23T13:31:06;1.10;;;0.60;;
62709;SDS011;48770;51.624;5.886;2022-08-23T13:33:32;1.17;;;0.80;;
62709;SDS011;48770;51.624;5.886;2022-08-23T13:36:31;3.63;;;0.80;;
62709;SDS011;48770;51.624;5.886;2022-08-23T13:38:49;1.83;;;0.90;;
62709;SDS011;48770;51.624;5.886;2022-08-23T13:41:29;0.90;;;0.80;;
62709;SDS011;48770;51.624;5.886;2022-08-23T13:43:57;1.27;;;0.70;;
62709;SDS011;48770;51.624;5.886;2022-08-23T13:46:24;1.35;;;0.73;;
62709;SDS011;48770;51.624;5.886;2022-08-23T13:49:03;0.85;;;0.75;;
62709;SDS011;48770;51.624;5.886;2022-08-23T13:51:37;1.15;;;0.60;;
62709;SDS011;48770;51.624;5.886;2022-08-23T13:54:06;1.75;;;0.80;;
62709;SDS011;48770;51.624;5.886;2022-08-23T13:56:37;1.08;;;0.50;;
62709;SDS011;48770;51.624;5.886;2022-08-23T14:02:00;0.85;;;0.55;;
62709;SDS011;48770;51.624;5.886;2022-08-23T14:04:28;0.82;;;0.60;;
62709;SDS011;48770;51.624;5.886;2022-08-23T14:06:53;5.47;;;0.95;;
62709;SDS011;48770;51.624;5.886;2022-08-23T14:09:18;4.13;;;0.90;;
62709;SDS011;48770;51.624;5.886;2022-08-23T14:11:44;1.65;;;0.70;;
62709;SDS011;48770;51.624;5.886;2022-08-23T14:14:14;1.48;;;0.63;;
62709;SDS011;48770;51.624;5.886;2022-08-23T14:16:39;2.60;;;0.70;;
62709;SDS011;48770;51.624;5.886;2022-08-23T14:19:06;0.65;;;0.55;;
62709;SDS011;48770;51.624;5.886;2022-08-23T14:21:34;1.23;;;0.73;;
62709;SDS011;48770;51.624;5.886;2022-08-23T14:23:59;1.10;;;0.60;;
62709;SDS011;48770;51.624;5.886;2022-08-23T14:26:25;1.42;;;0.70;;
62709;SDS011;48770;51.624;5.886;2022-08-23T14:28:50;2.08;;;0.60;;
62709;SDS011;48770;51.624;5.886;2022-08-23T14:31:16;1.67;;;0.70;;
62709;SDS011;48770;51.624;5.886;2022-08-23T14:33:43;1.48;;;0.68;;
62709;SDS011;48770;51.624;5.886;2022-08-23T14:36:09;2.30;;;1.52;;
62709;SDS011;48770;51.624;5.886;2022-08-23T14:38:36;3.92;;;2.80;;
62709;SDS011;48770;51.624;5.886;2022-08-23T14:41:02;5.43;;;3.15;;
62709;SDS011;48770;51.624;5.886;2022-08-23T14:43:31;4.63;;;3.47;;
62709;SDS011;48770;51.624;5.886;2022-08-23T14:45:56;6.70;;;4.30;;
62709;SDS011;48770;51.624;5.886;2022-08-23T14:48:22;7.90;;;5.00;;
62709;SDS011;48770;51.624;5.886;2022-08-23T14:50:49;6.35;;;4.05;;
62709;SDS011;48770;51.624;5.886;2022-08-23T14:53:17;9.63;;;4.40;;
62709;SDS011;48770;51.624;5.886;2022-08-23T14:55:45;6.38;;;3.67;;
62709;SDS011;48770;51.624;5.886;2022-08-23T14:58:13;7.20;;;3.97;;
62709;SDS011;48770;51.624;5.886;2022-08-23T15:00:39;5.28;;;3.60;;
62709;SDS011;48770;51.624;5.886;2022-08-23T15:03:06;6.93;;;3.65;;
62709;SDS011;48770;51.624;5.886;2022-08-23T15:05:33;5.13;;;3.22;;
62709;SDS011;48770;51.624;5.886;2022-08-23T15:07:59;5.43;;;3.45;;
62709;SDS011;48770;51.624;5.886;2022-08-23T15:10:24;5.18;;;3.55;;
62709;SDS011;48770;51.624;5.886;2022-08-23T15:12:49;3.83;;;2.77;;
62709;SDS011;48770;51.624;5.886;2022-08-23T15:15:16;4.18;;;2.17;;
62709;SDS011;48770;51.624;5.886;2022-08-23T15:17:46;2.28;;;1.70;;
62709;SDS011;48770;51.624;5.886;2022-08-23T15:20:16;4.05;;;1.98;;
62709;SDS011;48770;51.624;5.886;2022-08-23T15:22:46;1.60;;;1.50;;
62709;SDS011;48770;51.624;5.886;2022-08-23T15:25:12;2.10;;;1.63;;
62709;SDS011;48770;51.624;5.886;2022-08-23T15:27:40;2.35;;;1.67;;
62709;SDS011;48770;51.624;5.886;2022-08-23T15:30:06;2.60;;;1.48;;
62709;SDS011;48770;51.624;5.886;2022-08-23T15:32:33;2.20;;;1.42;;
62709;SDS011;48770;51.624;5.886;2022-08-23T15:34:58;2.08;;;1.55;;
62709;SDS011;48770;51.624;5.886;2022-08-23T15:37:24;2.35;;;1.60;;
62709;SDS011;48770;51.624;5.886;2022-08-23T15:39:49;2.13;;;1.40;;
62709;SDS011;48770;51.624;5.886;2022-08-23T15:42:15;2.85;;;1.45;;
62709;SDS011;48770;51.624;5.886;2022-08-23T15:44:40;2.38;;;1.40;;
62709;SDS011;48770;51.624;5.886;2022-08-23T15:47:12;1.92;;;1.40;;
62709;SDS011;48770;51.624;5.886;2022-08-23T15:49:42;2.55;;;1.50;;
62709;SDS011;48770;51.624;5.886;2022-08-23T15:52:07;2.40;;;1.20;;
62709;SDS011;48770;51.624;5.886;2022-08-23T15:54:33;2.10;;;1.35;;
62709;SDS011;48770;51.624;5.886;2022-08-23T15:56:58;1.60;;;1.27;;
62709;SDS011;48770;51.624;5.886;2022-08-23T15:59:24;1.52;;;1.10;;
62709;SDS011;48770;51.624;5.886;2022-08-23T16:01:49;2.20;;;0.98;;
62709;SDS011;48770;51.624;5.886;2022-08-23T16:04:15;1.20;;;1.10;;
62709;SDS011;48770;51.624;5.886;2022-08-23T16:06:41;1.30;;;1.20;;
62709;SDS011;48770;51.624;5.886;2022-08-23T16:09:11;1.90;;;1.20;;
62709;SDS011;48770;51.624;5.886;2022-08-23T16:11:43;2.03;;;1.05;;
62709;SDS011;48770;51.624;5.886;2022-08-23T16:14:09;1.42;;;1.17;;
62709;SDS011;48770;51.624;5.886;2022-08-23T16:16:35;1.80;;;1.30;;
62709;SDS011;48770;51.624;5.886;2022-08-23T16:19:02;1.05;;;0.95;;
62709;SDS011;48770;51.624;5.886;2022-08-23T16:21:29;1.48;;;1.10;;
62709;SDS011;48770;51.624;5.886;2022-08-23T16:23:56;1.17;;;1.00;;
62709;SDS011;48770;51.624;5.886;2022-08-23T16:26:27;1.08;;;0.90;;
62709;SDS011;48770;51.624;5.886;2022-08-23T16:28:56;1.10;;;0.90;;
62709;SDS011;48770;51.624;5.886;2022-08-23T16:31:23;1.10;;;0.88;;
62709;SDS011;48770;51.624;5.886;2022-08-23T16:33:53;1.50;;;1.10;;
62709;SDS011;48770;51.624;5.886;2022-08-23T16:36:21;1.27;;;1.00;;
62709;SDS011;48770;51.624;5.886;2022-08-23T16:38:47;1.10;;;1.00;;
62709;SDS011;48770;51.624;5.886;2022-08-23T16:41:13;1.25;;;1.05;;
62709;SDS011;48770;51.624;5.886;2022-08-23T16:43:39;1.30;;;0.95;;
62709;SDS011;48770;51.624;5.886;2022-08-23T16:46:04;1.20;;;0.90;;
62709;SDS011;48770;51.624;5.886;2022-08-23T16:48:30;0.93;;;0.80;;
62709;SDS011;48770;51.624;5.886;2022-08-23T16:50:55;1.27;;;0.85;;
62709;SDS011;48770;51.624;5.886;2022-08-23T16:53:20;1.75;;;0.80;;
62709;SDS011;48770;51.624;5.886;2022-08-23T16:55:46;1.13;;;1.02;;
62709;SDS011;48770;51.624;5.886;2022-08-23T16:58:12;0.70;;;0.70;;
62709;SDS011;48770;51.624;5.886;2022-08-23T17:00:38;1.52;;;0.80;;
62709;SDS011;48770;51.624;5.886;2022-08-23T17:03:04;0.63;;;0.63;;
62709;SDS011;48770;51.624;5.886;2022-08-23T17:05:30;1.17;;;0.90;;
62709;SDS011;48770;51.624;5.886;2022-08-23T17:07:56;1.67;;;1.05;;